Devonshire, New Jersey
Current Conditions -  °F | °C
As of 6:54 AM on Sunday 23 Nov 2014 (Local Time) from KACY Reporting Station
Overcast Overcast  
Wind Chill:   Ceiling: 11000
Heat Index:   Visibility: 10mi
Dew Point: -3°   Wind: 5mph
Humidity: 57%   Direction: 240°WSW
Pressure: 30.25"   Gusts: NA
Location:  39.5436°N, 74.5919°W
Report Text: KACY 231154Z 24004KT 10SM OVC110 05/M03 A3025 RMK AO2 SLP245 T00501028 10067 20039 53012
Loading
Personal Weather Stations






























Interactive Weather Map New forecast layout! Learn more

10-Day Weather Forecast

Advertisements
Track Severe Weather on mobile